Terminal Aerodrome Forecast
Issued by NWS

Current Version | Previous Version | Text Only | Print | Product List | Glossary On
Versions: 1 2 3 4 5 6 7 8 9 10 11 12 13 14 15 16 17
099
FTUS43 KLSX 140255 AAA
TAFCPS
TAF AMD
KCPS 140255Z 1403/1424 31014G22KT P6SM FEW035
     FM140400 32014G22KT P6SM BKN035
     FM140700 32012KT P6SM BKN025
     FM141200 33007KT P6SM BKN100=

USA.gov is the U.S. government's official web portal to all federal, state and local government web resources and services.